AirNav   TITAN Aviation Fuels
 
 1010 users online  

D41 Stephen Municipal Airport
Stephen, Minnesota, USA

GOING TO STEPHEN?


FAA INFORMATION EFFECTIVE 15 JULY 2021

Location

FAA Identifier: D41
Lat/Long: 48-27-29.9240N 096-51-46.2200W
48-27.498733N 096-51.770333W
48.4583122,-96.8628389
(estimated)
Elevation: 830 ft. / 253 m (estimated)
Variation: 06E (1985)
From city: 1 mile NE of STEPHEN, MN
Time zone: UTC -5 (UTC -6 during Standard Time)
Zip code: 56757

Airport Operations

Airport use: Open to the public
Activation date: 07/1952
Control tower: no
ARTCC: MINNEAPOLIS CENTER
FSS: PRINCETON FLIGHT SERVICE STATION
NOTAMs facility: PNM (NOTAM-D service available)
Attendance: MON-FRI DAYLIGHT HOURS
Pattern altitude: 1630 ft. MSL
Wind indicator: lighted
Segmented circle: no
Lights: SS-SR
Beacon: white-green (lighted land airport)
Operates sunset to sunrise.

Airport Communications

CTAF/UNICOM: 122.7
WX AWOS-3 at HCO (18 nm N): 126.475 (218-843-2415)

Nearby radio navigation aids

VOR radial/distance  VOR name  Freq  Var
HMLr149/26.6HUMBOLDT VORTAC112.4009E
GFKr014/32.8GRAND FORKS VOR/DME114.3009E
TVFr303/35.7THIEF RIVER FALLS VOR/DME108.4008E

Airport Services

Fuel available: 100LL
100LL:FUEL AVBL UPON PRIOR REQ.
Parking: hangars and tiedowns

Runway Information

Runway 17/35

Dimensions: 2700 x 60 ft. / 823 x 18 m
Surface: asphalt, in good condition
Runway edge lights: low intensity
RUNWAY 17  RUNWAY 35
Latitude: 48-27.878333N48-27.435500N
Longitude: 096-51.969833W096-51.920667W
Elevation: 830.0 ft.830.0 ft.
Traffic pattern: leftleft
Markings: basic, in good conditionbasic, in good condition
Runway end identifier lights: nono
Obstructions: none17 ft. road, 482 ft. from runway, 16:1 slope to clear

Airport Ownership and Management from official FAA records

Ownership: Publicly-owned
Owner: CITY OF STEPHEN
424 FIFTH ST., PO BOX 630
STEPHEN, MN 56757
Phone 218-478-3614
Manager: KIRK LARSON
40214 380TH ST. NW, PO BOX 139
STEPHEN, MN 56757
Phone 218-478-2247

Airport Operational Statistics

Aircraft based on the field: 11
Single engine airplanes: 11
    
Aircraft operations: avg 41/day *
79% local general aviation
20% transient general aviation
<1% air taxi
* for 12-month period ending 31 May 2018

Additional Remarks

ANTENNA 1.85 SM SE, 1,258 FT MSL (418 FT AGL)
FOR CD CTC MINNEAPOLIS ARTCC AT 651-463-5588.

Instrument Procedures

There are no published instrument procedures at D41.

Some nearby airports with instrument procedures:

D37 - Warren Municipal Airport (17 nm S)
KHCO - Hallock Municipal Airport (18 nm N)
KGAF - Hutson Field Airport (20 nm W)
KPMB - Pembina Municipal Airport (33 nm NW)
KGFK - Grand Forks International Airport (33 nm S)
 
Loc | Ops | Rwys | IFR | FBO | Links
Com | Nav | Svcs | Stats | Notes
Area around D41 (Stephen Municipal Airport)
 
Road maps at: MapQuest Bing Google
 
Aerial photo
No photo
 
Sectional chart

 
Airport distance calculator
Flying to Stephen Municipal Airport? Find the distance to fly.

From to D41

Sunrise and sunset
Times for 01-Aug-2021
 Local
(UTC-5)
 Zulu
(UTC)
Morning civil twilight05:2610:26
Sunrise06:0311:03
Sunset21:0402:04
Evening civil twilight21:4102:41

Current date and time
Zulu (UTC)  01-Aug-2021 14:27:35
Local (UTC-5)  01-Aug-2021 09:27:35
 
METAR
KHCO 
18nm N 
011415Z AUTO 00000KT 10SM CLR 17/12 A3028 RMK AO2
KGAF 
20nm W 
011415Z AUTO 34005KT 8SM CLR 16/10 RMK AO2
KGFK 
33nm SW 
011353Z 36007KT 8SM BKN055 16/09 A3028 RMK AO2 SLP255 T01560089
TAF
KGFK 
33nm SW 
011137Z 0112/0212 34006KT 6SM FU FEW250 FM020300 05005KT 6SM FU FEW250
KTVF 
36nm SE 
011137Z 0112/0212 VRB05KT 6SM FU SKC
KRDR 
36nm SW 
010325Z 0103/0208 33006KT 9000 FU SKC QNH3016INS BECMG 0111/0112 35006KT 9999 NSW SKC QNH3012INS TX26/0121Z TN13/0111Z LAST NO AMDS AFT 0104 NEXT 0111
NOTAMs
Click for the latest NOTAMs
NOTAMs are issued by the DoD/FAA and will open in a separate window not controlled by AirNav.

 

 
 

Would you like to see your business listed on this page?

 If your business provides an interesting product or service to pilots, flight crews, aircraft, or users of the Stephen Municipal Airport, you should consider listing it here.  To start the listing process, click on the button below
 
Add a business
 

Other Pages about Stephen Municipal Airport

Update a link
 
Copyright © AirNav, LLC. All rights reserved. Privacy Policy  Contact